< < Back
Terminal Aerodrome Forecast


Current Version              Previous Versions:   1  2  3  4  5  6  7  8  9  

Terminal Aerodrome Forecast

255
FTUS44 KOHX 311100
TAFBNA
TAF
KBNA 311133Z 3112/0112 00000KT P6SM BKN200
     FM311400 15005KT P6SM SCT060 BKN120
     FM010700 VRB02KT 5SM BR BKN200=

Latest METAR

432
SAUS70 KWBC 311900 RRB
MTRBNA
METAR KBNA 311853Z 00000KT 10SM SCT060 SCT075 SCT200 BKN250 29/13 A3009
RMK AO2 SLP183 T02940128


USA.gov is the U.S. government's official web portal to all federal, state and local government web resources and services.